Saturday, July 02, 2016
03:52 UTC
  |  Log In   |  Register Free
Airport Search:

Hobart Regional Airport
(KHBR)

Hobart Regional Airport Diagram
No Airport Diagram Available

FAA data valid effective May 26 2016 - Jul 21 2016 (unless otherwise noted).

 
 
 
 
 
 
 
 
 
 
 
 
 
 
Current Aviation Weather for KHBR

Weather Summary


The most recent METAR observation for HBR was updated at: 12:53 UTC
METAR for KHBR is not available. Closest METAR is for KCSM
KHBR  (most recent observation was updatred at 20:25 UTC)
020253Z AUTO 15009KT 10SM CLR 28/18 A2999 RMK AO2 SLP138 T02780183 53010

KCSM  (22.2 nm SE)   (most recent observation was updated at 20:25 UTC)
020253Z 09007KT 10SM CLR 27/22 A3003 RMK AO2 SLP144 T02720217 53008

KAXS  (22.5 nm NE)   (most recent observation was updated at 20:33 UTC)
020335Z AUTO 14010KT 10SM CLR 29/18 A3000 RMK AO2 T02900175

TAF for KHBR is not available.
KHBR
012320Z 0200/0224 14012KT P6SM SCT060 BKN110 FM021400 19017G24KT P6SM FEW060 SCT200

KCSM  (22.2 nm SE)   (most recent observation was updatred at 20:03 UTC)
AMD 020037Z 0201/0224 14012KT P6SM VCTS FEW030CB BKN200 FM020200 14012KT P6SM SCT200 FM021400 19016G23KT P6SM FEW060 SCT200


KLTS  (23.1 nm NE)   (most recent observation was updatred at 20:10 UTC)
020100Z 0201/0307 10012KT 9999 FEW070 SCT300 QNH2992INS BECMG 0202/0203 13006KT 9999 FEW050 SCT300 QNH2995INS BECMG 0214/0215 18012G18KT 9999 FEW090 SCT250 QNH2982INS BECMG 0302/0303 17010KT 9999 FEW070 FEW150 QNH2980INS TX37/0222Z TN24/0213Z
GlobalAir.com is loading additional information.
 Current Weather at HBR
83.0 F° (28.3 C°)

Southeast winds at 9.2 mph
Pressure:
29.97 in
Humidity:
67%
Wind:
Southeast at 9.2 mph
Dew Point:
71.1 F° (21.7 C°)
Visibility:
10.00 mi
HBR NOAA Radar




Find All Airport Services Find A Hotel Find A Rental Car Find A Golf Course Find A Restaurant $100 Hamburger



Airport Weather Forecast for KHBR

Translated METAR for KHBR (0253 UTC)
METAR:
KHBR 020253Z AUTO 15009KT 10SM CLR 28/18 A2999 RMK AO2 SLP138 T02780183 53010
Conditions at:
KHBR (Hobart Rgnl, OK) observed 0253 UTC 01 July 2016
Temperature:
28°C (82.4°F)
Dewpoint:
18°C (64.4°F) [RH = 54.6]
Pressure:
29.99 inches Hg (1015.6 mb)
pressure at sea level is 138 in Hg
Winds:
from the SSE (150 degrees) at 10.4 mph (9 knots: 4.6 m/s)
Visibility:
10 mile(s)
Ceiling:
at least 12,000 feet AGL
Clouds:
Clear below 12,000 feet AGL
Remarks:
site is un-manned
site is automated and HAS a precipitation sensor

Translated TAF for KHBR (Hobart Rgnl, OK) (2320 UTC)
TAF text:
KHBR 012320Z 0200/0224 14012KT P6SM SCT060 BKN110
Forecast period:
Saturday Jul 02 2016 00:00 UTC - Saturday Jul 02 2016 24:00 UTC
Forecast type:
FROM: standard forecast or significant change
Winds:
from the SE (140 degrees) at 13.8 mph (12 knots: 6.2 m/s)
Visibility:
6 or more mile(s) (9.7+ km)
Ceiling:
11,000 feet AGL
Clouds:
Scattered Clouds at 6,000 feet AGL
Broken Cloud Cover at 11,000 feet AGL
Weather:
no significant weather observed at this time
TAF text:
FM021400 19017G24KT P6SM FEW060 SCT200
Forecast period:
Saturday Jul 02 2016 14:00 UTC - Saturday Jul 02 2016 24:00 UTC
Forecast type:
FROM: standard forecast or significant change
Winds:
from the S (190 degrees) at 19.6 mph (17 knots: 8.7 m/s)
gusting to 27.6 mph (24 knots: 12.3 m/s)
Visibility:
6 or more mile(s) (9.7+ km)
Ceiling:
at least 12,000 feet AGL
Clouds:
Few Clouds at 6,000 feet AGL
Scattered Clouds at 20,000 feet AGL
Weather:
no significant weather observed at this time
FBO's on the Field
FBO Company Facility Photos Services Transportation Aviation Fuel Prices: Prices include tax
Catering Weather Repair Courtesy Rental Type 100LL JetA JetA+ MOGAS 8087
 
City of Hobart

Currently rated 5 by 1 person
FS:Phillips 66
Last Updated: May-26
Login to update fuel prices
SS:
Contact City of HobartMore FBO Information
 
Add another FBO Facility Photos Catering Weather Repair Courtesy Rental Type 100LL JetA JetA+ MOGAS 8087
Services Transportation Aviation Fuel Prices: Prices include tax


model-print
model-print
model-print
model-print